sensor_id;sensor_type;location;lat;lon;timestamp;P1;durP1;ratioP1;P2;durP2;ratioP2
18176;SDS011;9213;50.858;3.964;2023-09-12T00:00:23;28.60;;;19.58;;
18176;SDS011;9213;50.858;3.964;2023-09-12T00:02:52;27.65;;;20.02;;
18176;SDS011;9213;50.858;3.964;2023-09-12T00:05:19;26.95;;;20.40;;
18176;SDS011;9213;50.858;3.964;2023-09-12T00:07:45;25.50;;;20.50;;
18176;SDS011;9213;50.858;3.964;2023-09-12T00:10:12;28.25;;;20.58;;
18176;SDS011;9213;50.858;3.964;2023-09-12T00:12:39;31.05;;;21.45;;
18176;SDS011;9213;50.858;3.964;2023-09-12T00:15:07;28.38;;;21.05;;
18176;SDS011;9213;50.858;3.964;2023-09-12T00:17:34;30.17;;;22.67;;
18176;SDS011;9213;50.858;3.964;2023-09-12T00:20:02;28.08;;;22.40;;
18176;SDS011;9213;50.858;3.964;2023-09-12T00:22:31;31.17;;;22.90;;
18176;SDS011;9213;50.858;3.964;2023-09-12T00:24:58;31.27;;;22.80;;
18176;SDS011;9213;50.858;3.964;2023-09-12T00:27:25;29.95;;;22.48;;
18176;SDS011;9213;50.858;3.964;2023-09-12T00:29:52;30.02;;;22.73;;
18176;SDS011;9213;50.858;3.964;2023-09-12T00:32:19;31.85;;;22.23;;
18176;SDS011;9213;50.858;3.964;2023-09-12T00:34:46;33.30;;;22.92;;
18176;SDS011;9213;50.858;3.964;2023-09-12T00:37:14;35.58;;;23.35;;
18176;SDS011;9213;50.858;3.964;2023-09-12T00:39:41;35.10;;;25.00;;
18176;SDS011;9213;50.858;3.964;2023-09-12T00:42:08;34.90;;;23.75;;
18176;SDS011;9213;50.858;3.964;2023-09-12T00:44:35;31.60;;;24.15;;
18176;SDS011;9213;50.858;3.964;2023-09-12T00:47:02;32.63;;;24.65;;
18176;SDS011;9213;50.858;3.964;2023-09-12T00:49:29;39.25;;;24.23;;
18176;SDS011;9213;50.858;3.964;2023-09-12T00:51:57;29.48;;;24.02;;
18176;SDS011;9213;50.858;3.964;2023-09-12T00:54:28;31.92;;;23.33;;
18176;SDS011;9213;50.858;3.964;2023-09-12T00:56:55;29.05;;;23.25;;
18176;SDS011;9213;50.858;3.964;2023-09-12T00:59:22;32.83;;;23.83;;
18176;SDS011;9213;50.858;3.964;2023-09-12T01:01:49;29.92;;;22.67;;
18176;SDS011;9213;50.858;3.964;2023-09-12T01:04:17;28.50;;;22.17;;
18176;SDS011;9213;50.858;3.964;2023-09-12T01:06:45;32.58;;;23.58;;
18176;SDS011;9213;50.858;3.964;2023-09-12T01:09:13;32.78;;;23.25;;
18176;SDS011;9213;50.858;3.964;2023-09-12T01:11:41;31.83;;;22.63;;
18176;SDS011;9213;50.858;3.964;2023-09-12T01:14:08;33.60;;;21.75;;
18176;SDS011;9213;50.858;3.964;2023-09-12T01:16:35;28.83;;;22.48;;
18176;SDS011;9213;50.858;3.964;2023-09-12T01:19:02;32.65;;;23.77;;
18176;SDS011;9213;50.858;3.964;2023-09-12T01:21:40;29.65;;;21.67;;
18176;SDS011;9213;50.858;3.964;2023-09-12T01:24:25;32.35;;;22.80;;
18176;SDS011;9213;50.858;3.964;2023-09-12T01:29:56;31.00;;;22.25;;
18176;SDS011;9213;50.858;3.964;2023-09-12T01:32:26;31.52;;;21.05;;
18176;SDS011;9213;50.858;3.964;2023-09-12T01:34:55;31.40;;;22.10;;
18176;SDS011;9213;50.858;3.964;2023-09-12T01:37:22;33.20;;;22.70;;
18176;SDS011;9213;50.858;3.964;2023-09-12T01:39:49;34.00;;;22.80;;
18176;SDS011;9213;50.858;3.964;2023-09-12T01:42:16;30.70;;;22.00;;
18176;SDS011;9213;50.858;3.964;2023-09-12T01:44:49;30.95;;;21.17;;
18176;SDS011;9213;50.858;3.964;2023-09-12T01:47:20;29.08;;;21.02;;
18176;SDS011;9213;50.858;3.964;2023-09-12T01:49:49;29.75;;;21.45;;
18176;SDS011;9213;50.858;3.964;2023-09-12T01:52:18;28.48;;;21.63;;
18176;SDS011;9213;50.858;3.964;2023-09-12T01:54:46;31.05;;;22.02;;
18176;SDS011;9213;50.858;3.964;2023-09-12T01:57:15;27.50;;;20.92;;
18176;SDS011;9213;50.858;3.964;2023-09-12T01:59:45;28.25;;;19.73;;
18176;SDS011;9213;50.858;3.964;2023-09-12T02:02:14;26.75;;;20.77;;
18176;SDS011;9213;50.858;3.964;2023-09-12T02:04:42;28.73;;;21.00;;
18176;SDS011;9213;50.858;3.964;2023-09-12T02:07:16;28.73;;;20.98;;
18176;SDS011;9213;50.858;3.964;2023-09-12T02:09:43;32.17;;;20.58;;
18176;SDS011;9213;50.858;3.964;2023-09-12T02:12:09;30.80;;;19.80;;
18176;SDS011;9213;50.858;3.964;2023-09-12T02:14:36;30.48;;;21.55;;
18176;SDS011;9213;50.858;3.964;2023-09-12T02:17:05;30.23;;;20.65;;
18176;SDS011;9213;50.858;3.964;2023-09-12T02:19:31;27.48;;;20.15;;
18176;SDS011;9213;50.858;3.964;2023-09-12T02:21:58;29.73;;;20.80;;
18176;SDS011;9213;50.858;3.964;2023-09-12T02:24:25;30.13;;;21.80;;
18176;SDS011;9213;50.858;3.964;2023-09-12T02:26:52;30.25;;;21.00;;
18176;SDS011;9213;50.858;3.964;2023-09-12T02:29:19;30.80;;;21.70;;
18176;SDS011;9213;50.858;3.964;2023-09-12T02:31:46;27.45;;;22.15;;
18176;SDS011;9213;50.858;3.964;2023-09-12T02:34:14;31.00;;;21.83;;
18176;SDS011;9213;50.858;3.964;2023-09-12T02:36:41;28.20;;;21.08;;
18176;SDS011;9213;50.858;3.964;2023-09-12T02:39:08;31.45;;;21.25;;
18176;SDS011;9213;50.858;3.964;2023-09-12T02:41:35;28.33;;;21.88;;
18176;SDS011;9213;50.858;3.964;2023-09-12T02:44:02;32.55;;;21.80;;
18176;SDS011;9213;50.858;3.964;2023-09-12T02:46:29;31.13;;;21.70;;
18176;SDS011;9213;50.858;3.964;2023-09-12T02:48:56;30.83;;;22.35;;
18176;SDS011;9213;50.858;3.964;2023-09-12T02:51:24;32.58;;;23.48;;
18176;SDS011;9213;50.858;3.964;2023-09-12T02:53:52;32.78;;;23.25;;
18176;SDS011;9213;50.858;3.964;2023-09-12T02:56:19;31.30;;;23.27;;
18176;SDS011;9213;50.858;3.964;2023-09-12T02:58:46;30.17;;;23.35;;
18176;SDS011;9213;50.858;3.964;2023-09-12T03:01:14;27.45;;;21.63;;
18176;SDS011;9213;50.858;3.964;2023-09-12T03:03:42;30.67;;;22.27;;
18176;SDS011;9213;50.858;3.964;2023-09-12T03:06:12;31.25;;;22.58;;
18176;SDS011;9213;50.858;3.964;2023-09-12T03:08:41;29.00;;;22.38;;
18176;SDS011;9213;50.858;3.964;2023-09-12T03:11:09;31.45;;;23.25;;
18176;SDS011;9213;50.858;3.964;2023-09-12T03:13:36;31.65;;;23.30;;
18176;SDS011;9213;50.858;3.964;2023-09-12T03:16:03;34.50;;;23.48;;
18176;SDS011;9213;50.858;3.964;2023-09-12T03:18:31;35.55;;;23.45;;
18176;SDS011;9213;50.858;3.964;2023-09-12T03:20:57;32.60;;;24.30;;
18176;SDS011;9213;50.858;3.964;2023-09-12T03:23:26;33.08;;;23.88;;
18176;SDS011;9213;50.858;3.964;2023-09-12T03:25:54;33.30;;;23.90;;
18176;SDS011;9213;50.858;3.964;2023-09-12T03:28:27;35.97;;;23.45;;
18176;SDS011;9213;50.858;3.964;2023-09-12T03:30:55;32.22;;;22.75;;
18176;SDS011;9213;50.858;3.964;2023-09-12T03:33:30;29.63;;;21.77;;
18176;SDS011;9213;50.858;3.964;2023-09-12T03:35:57;34.45;;;22.40;;
18176;SDS011;9213;50.858;3.964;2023-09-12T03:38:24;34.33;;;22.58;;
18176;SDS011;9213;50.858;3.964;2023-09-12T03:40:51;31.55;;;22.25;;
18176;SDS011;9213;50.858;3.964;2023-09-12T03:43:19;33.35;;;22.70;;
18176;SDS011;9213;50.858;3.964;2023-09-12T03:45:46;30.10;;;22.05;;
18176;SDS011;9213;50.858;3.964;2023-09-12T03:48:14;30.17;;;22.33;;
18176;SDS011;9213;50.858;3.964;2023-09-12T03:50:40;30.67;;;23.17;;
18176;SDS011;9213;50.858;3.964;2023-09-12T03:53:08;31.70;;;21.77;;
18176;SDS011;9213;50.858;3.964;2023-09-12T03:55:35;34.00;;;23.38;;
18176;SDS011;9213;50.858;3.964;2023-09-12T03:58:02;30.83;;;22.00;;
18176;SDS011;9213;50.858;3.964;2023-09-12T04:00:31;30.13;;;21.55;;
18176;SDS011;9213;50.858;3.964;2023-09-12T04:02:57;29.05;;;21.85;;
18176;SDS011;9213;50.858;3.964;2023-09-12T04:05:24;31.30;;;23.30;;
18176;SDS011;9213;50.858;3.964;2023-09-12T04:07:51;33.38;;;22.58;;
18176;SDS011;9213;50.858;3.964;2023-09-12T04:10:19;30.67;;;22.67;;
18176;SDS011;9213;50.858;3.964;2023-09-12T04:12:46;30.75;;;22.00;;
18176;SDS011;9213;50.858;3.964;2023-09-12T04:15:14;34.63;;;23.25;;
18176;SDS011;9213;50.858;3.964;2023-09-12T04:17:42;31.42;;;21.77;;
18176;SDS011;9213;50.858;3.964;2023-09-12T04:20:09;33.05;;;21.42;;
18176;SDS011;9213;50.858;3.964;2023-09-12T04:22:38;29.02;;;20.90;;
18176;SDS011;9213;50.858;3.964;2023-09-12T04:25:06;34.63;;;22.63;;
18176;SDS011;9213;50.858;3.964;2023-09-12T04:27:33;29.70;;;21.50;;
18176;SDS011;9213;50.858;3.964;2023-09-12T04:30:00;31.77;;;22.27;;
18176;SDS011;9213;50.858;3.964;2023-09-12T04:32:28;34.03;;;20.52;;
18176;SDS011;9213;50.858;3.964;2023-09-12T04:34:57;30.08;;;21.05;;
18176;SDS011;9213;50.858;3.964;2023-09-12T04:37:24;28.40;;;21.15;;
18176;SDS011;9213;50.858;3.964;2023-09-12T04:39:50;29.20;;;22.38;;
18176;SDS011;9213;50.858;3.964;2023-09-12T04:42:17;31.73;;;21.90;;
18176;SDS011;9213;50.858;3.964;2023-09-12T04:44:44;29.38;;;21.08;;
18176;SDS011;9213;50.858;3.964;2023-09-12T04:47:11;29.77;;;21.60;;
18176;SDS011;9213;50.858;3.964;2023-09-12T04:49:38;26.75;;;21.33;;
18176;SDS011;9213;50.858;3.964;2023-09-12T04:52:07;28.50;;;20.92;;
18176;SDS011;9213;50.858;3.964;2023-09-12T04:54:33;31.38;;;21.95;;
18176;SDS011;9213;50.858;3.964;2023-09-12T04:57:01;30.40;;;22.27;;
18176;SDS011;9213;50.858;3.964;2023-09-12T04:59:28;32.75;;;22.70;;
18176;SDS011;9213;50.858;3.964;2023-09-12T05:01:55;30.23;;;21.80;;
18176;SDS011;9213;50.858;3.964;2023-09-12T05:04:22;33.00;;;22.58;;
18176;SDS011;9213;50.858;3.964;2023-09-12T05:06:49;30.80;;;21.33;;
18176;SDS011;9213;50.858;3.964;2023-09-12T05:09:17;31.42;;;22.08;;
18176;SDS011;9213;50.858;3.964;2023-09-12T05:11:44;33.10;;;21.38;;
18176;SDS011;9213;50.858;3.964;2023-09-12T05:14:11;30.05;;;20.65;;
18176;SDS011;9213;50.858;3.964;2023-09-12T05:16:38;30.73;;;20.67;;
18176;SDS011;9213;50.858;3.964;2023-09-12T05:19:05;28.58;;;20.63;;
18176;SDS011;9213;50.858;3.964;2023-09-12T05:21:32;27.17;;;19.38;;
18176;SDS011;9213;50.858;3.964;2023-09-12T05:23:59;27.35;;;19.08;;
18176;SDS011;9213;50.858;3.964;2023-09-12T05:26:27;27.98;;;19.30;;
18176;SDS011;9213;50.858;3.964;2023-09-12T05:28:54;26.23;;;21.10;;
18176;SDS011;9213;50.858;3.964;2023-09-12T05:31:21;28.95;;;20.30;;
18176;SDS011;9213;50.858;3.964;2023-09-12T05:33:48;32.92;;;22.65;;
18176;SDS011;9213;50.858;3.964;2023-09-12T05:36:15;32.63;;;22.05;;
18176;SDS011;9213;50.858;3.964;2023-09-12T05:38:42;35.67;;;21.50;;
18176;SDS011;9213;50.858;3.964;2023-09-12T05:41:09;31.17;;;20.70;;
18176;SDS011;9213;50.858;3.964;2023-09-12T05:43:37;34.65;;;21.55;;
18176;SDS011;9213;50.858;3.964;2023-09-12T05:46:04;29.90;;;20.90;;
18176;SDS011;9213;50.858;3.964;2023-09-12T05:48:31;27.35;;;19.02;;
18176;SDS011;9213;50.858;3.964;2023-09-12T05:50:58;27.95;;;19.33;;
18176;SDS011;9213;50.858;3.964;2023-09-12T05:53:24;32.72;;;21.75;;
18176;SDS011;9213;50.858;3.964;2023-09-12T05:55:51;37.35;;;23.15;;
18176;SDS011;9213;50.858;3.964;2023-09-12T05:58:18;37.03;;;22.67;;
18176;SDS011;9213;50.858;3.964;2023-09-12T06:00:47;39.17;;;24.55;;
18176;SDS011;9213;50.858;3.964;2023-09-12T06:03:14;38.20;;;24.50;;
18176;SDS011;9213;50.858;3.964;2023-09-12T06:05:41;38.30;;;23.85;;
18176;SDS011;9213;50.858;3.964;2023-09-12T06:08:08;63.15;;;24.58;;
18176;SDS011;9213;50.858;3.964;2023-09-12T06:10:35;46.92;;;25.00;;
18176;SDS011;9213;50.858;3.964;2023-09-12T06:13:02;33.15;;;23.92;;
18176;SDS011;9213;50.858;3.964;2023-09-12T06:15:29;34.03;;;23.10;;
18176;SDS011;9213;50.858;3.964;2023-09-12T06:17:58;28.85;;;21.08;;
18176;SDS011;9213;50.858;3.964;2023-09-12T06:20:25;28.73;;;21.63;;
18176;SDS011;9213;50.858;3.964;2023-09-12T06:22:52;28.05;;;20.42;;
18176;SDS011;9213;50.858;3.964;2023-09-12T06:25:18;26.63;;;20.63;;
18176;SDS011;9213;50.858;3.964;2023-09-12T06:27:45;26.95;;;21.10;;
18176;SDS011;9213;50.858;3.964;2023-09-12T06:30:12;25.75;;;19.20;;
18176;SDS011;9213;50.858;3.964;2023-09-12T06:32:40;27.63;;;19.83;;
18176;SDS011;9213;50.858;3.964;2023-09-12T06:35:08;26.65;;;20.15;;
18176;SDS011;9213;50.858;3.964;2023-09-12T06:37:36;29.98;;;21.08;;
18176;SDS011;9213;50.858;3.964;2023-09-12T06:40:03;33.22;;;23.02;;
18176;SDS011;9213;50.858;3.964;2023-09-12T06:42:31;34.22;;;22.70;;
18176;SDS011;9213;50.858;3.964;2023-09-12T06:44:58;38.30;;;23.92;;
18176;SDS011;9213;50.858;3.964;2023-09-12T06:47:25;33.83;;;21.50;;
18176;SDS011;9213;50.858;3.964;2023-09-12T06:49:52;46.35;;;24.77;;
18176;SDS011;9213;50.858;3.964;2023-09-12T06:52:20;42.67;;;25.65;;
18176;SDS011;9213;50.858;3.964;2023-09-12T06:54:47;49.70;;;25.48;;
18176;SDS011;9213;50.858;3.964;2023-09-12T06:57:14;49.13;;;26.67;;
18176;SDS011;9213;50.858;3.964;2023-09-12T06:59:41;52.95;;;29.65;;
18176;SDS011;9213;50.858;3.964;2023-09-12T07:02:07;60.22;;;30.75;;
18176;SDS011;9213;50.858;3.964;2023-09-12T07:04:36;60.17;;;30.52;;
18176;SDS011;9213;50.858;3.964;2023-09-12T07:07:03;57.97;;;30.00;;
18176;SDS011;9213;50.858;3.964;2023-09-12T07:09:32;62.70;;;30.40;;
18176;SDS011;9213;50.858;3.964;2023-09-12T07:11:59;57.47;;;31.50;;
18176;SDS011;9213;50.858;3.964;2023-09-12T07:14:26;63.75;;;32.50;;
18176;SDS011;9213;50.858;3.964;2023-09-12T07:16:54;70.47;;;34.42;;
18176;SDS011;9213;50.858;3.964;2023-09-12T07:19:21;69.13;;;34.15;;
18176;SDS011;9213;50.858;3.964;2023-09-12T07:21:49;75.03;;;34.92;;
18176;SDS011;9213;50.858;3.964;2023-09-12T07:24:16;72.38;;;34.38;;
18176;SDS011;9213;50.858;3.964;2023-09-12T07:26:44;69.72;;;34.85;;
18176;SDS011;9213;50.858;3.964;2023-09-12T07:29:12;75.22;;;36.25;;
18176;SDS011;9213;50.858;3.964;2023-09-12T07:31:38;66.38;;;34.78;;
18176;SDS011;9213;50.858;3.964;2023-09-12T07:34:05;78.35;;;37.63;;
18176;SDS011;9213;50.858;3.964;2023-09-12T07:36:33;72.25;;;35.53;;
18176;SDS011;9213;50.858;3.964;2023-09-12T07:39:00;75.85;;;36.17;;
18176;SDS011;9213;50.858;3.964;2023-09-12T07:41:27;66.63;;;34.95;;
18176;SDS011;9213;50.858;3.964;2023-09-12T07:43:55;68.38;;;34.30;;
18176;SDS011;9213;50.858;3.964;2023-09-12T07:46:22;68.97;;;33.35;;
18176;SDS011;9213;50.858;3.964;2023-09-12T07:48:49;66.70;;;33.90;;
18176;SDS011;9213;50.858;3.964;2023-09-12T07:51:17;72.93;;;34.78;;
18176;SDS011;9213;50.858;3.964;2023-09-12T07:53:44;69.85;;;33.55;;
18176;SDS011;9213;50.858;3.964;2023-09-12T07:56:11;67.07;;;34.88;;
18176;SDS011;9213;50.858;3.964;2023-09-12T07:58:38;71.00;;;33.97;;
18176;SDS011;9213;50.858;3.964;2023-09-12T08:01:06;67.72;;;33.40;;
18176;SDS011;9213;50.858;3.964;2023-09-12T08:03:35;67.50;;;34.40;;
18176;SDS011;9213;50.858;3.964;2023-09-12T08:06:03;72.47;;;34.63;;
18176;SDS011;9213;50.858;3.964;2023-09-12T08:08:31;62.83;;;32.80;;
18176;SDS011;9213;50.858;3.964;2023-09-12T08:10:58;60.67;;;33.78;;
18176;SDS011;9213;50.858;3.964;2023-09-12T08:13:25;58.30;;;33.13;;
18176;SDS011;9213;50.858;3.964;2023-09-12T08:15:53;64.53;;;32.72;;
18176;SDS011;9213;50.858;3.964;2023-09-12T08:18:25;57.38;;;31.83;;
18176;SDS011;9213;50.858;3.964;2023-09-12T08:20:53;57.00;;;29.98;;
18176;SDS011;9213;50.858;3.964;2023-09-12T08:23:20;49.67;;;29.00;;
18176;SDS011;9213;50.858;3.964;2023-09-12T08:25:47;50.25;;;29.33;;
18176;SDS011;9213;50.858;3.964;2023-09-12T08:28:13;46.03;;;27.30;;
18176;SDS011;9213;50.858;3.964;2023-09-12T08:30:40;40.88;;;27.13;;
18176;SDS011;9213;50.858;3.964;2023-09-12T08:33:09;46.75;;;28.77;;
18176;SDS011;9213;50.858;3.964;2023-09-12T08:35:37;44.30;;;27.17;;
18176;SDS011;9213;50.858;3.964;2023-09-12T08:38:04;47.28;;;29.27;;
18176;SDS011;9213;50.858;3.964;2023-09-12T08:40:32;48.22;;;29.38;;
18176;SDS011;9213;50.858;3.964;2023-09-12T08:43:00;42.13;;;28.10;;
18176;SDS011;9213;50.858;3.964;2023-09-12T08:45:28;37.90;;;26.48;;
18176;SDS011;9213;50.858;3.964;2023-09-12T08:47:56;43.45;;;27.73;;
18176;SDS011;9213;50.858;3.964;2023-09-12T08:50:26;41.63;;;27.42;;
18176;SDS011;9213;50.858;3.964;2023-09-12T08:52:57;39.50;;;27.27;;
18176;SDS011;9213;50.858;3.964;2023-09-12T08:55:24;42.72;;;27.27;;
18176;SDS011;9213;50.858;3.964;2023-09-12T08:57:51;42.65;;;28.60;;
18176;SDS011;9213;50.858;3.964;2023-09-12T09:00:20;46.78;;;30.23;;
18176;SDS011;9213;50.858;3.964;2023-09-12T09:02:49;38.88;;;27.52;;
18176;SDS011;9213;50.858;3.964;2023-09-12T09:05:17;39.05;;;25.90;;
18176;SDS011;9213;50.858;3.964;2023-09-12T09:07:48;37.35;;;24.63;;
18176;SDS011;9213;50.858;3.964;2023-09-12T09:10:17;36.42;;;24.48;;
18176;SDS011;9213;50.858;3.964;2023-09-12T09:12:46;37.28;;;24.70;;
18176;SDS011;9213;50.858;3.964;2023-09-12T09:15:22;35.20;;;23.38;;
18176;SDS011;9213;50.858;3.964;2023-09-12T09:17:51;35.88;;;24.88;;
18176;SDS011;9213;50.858;3.964;2023-09-12T09:20:25;39.05;;;25.02;;
18176;SDS011;9213;50.858;3.964;2023-09-12T09:22:57;35.65;;;23.38;;
18176;SDS011;9213;50.858;3.964;2023-09-12T09:25:31;37.85;;;23.02;;
18176;SDS011;9213;50.858;3.964;2023-09-12T09:27:58;33.53;;;23.67;;
18176;SDS011;9213;50.858;3.964;2023-09-12T09:30:41;33.38;;;23.45;;
18176;SDS011;9213;50.858;3.964;2023-09-12T09:33:09;31.70;;;21.60;;
18176;SDS011;9213;50.858;3.964;2023-09-12T09:35:37;29.40;;;21.27;;
18176;SDS011;9213;50.858;3.964;2023-09-12T09:38:05;35.28;;;23.42;;
18176;SDS011;9213;50.858;3.964;2023-09-12T09:40:35;30.35;;;22.65;;
18176;SDS011;9213;50.858;3.964;2023-09-12T09:43:02;28.10;;;21.60;;
18176;SDS011;9213;50.858;3.964;2023-09-12T09:45:30;29.30;;;22.35;;
18176;SDS011;9213;50.858;3.964;2023-09-12T09:47:58;34.20;;;22.00;;
18176;SDS011;9213;50.858;3.964;2023-09-12T09:50:25;32.80;;;24.33;;
18176;SDS011;9213;50.858;3.964;2023-09-12T09:52:54;29.30;;;22.73;;
18176;SDS011;9213;50.858;3.964;2023-09-12T09:55:22;28.35;;;22.17;;
18176;SDS011;9213;50.858;3.964;2023-09-12T09:57:51;26.23;;;20.15;;
18176;SDS011;9213;50.858;3.964;2023-09-12T10:00:19;24.58;;;18.35;;
18176;SDS011;9213;50.858;3.964;2023-09-12T10:02:49;24.75;;;18.30;;
18176;SDS011;9213;50.858;3.964;2023-09-12T10:05:16;27.45;;;17.83;;
18176;SDS011;9213;50.858;3.964;2023-09-12T10:07:45;24.67;;;16.98;;
18176;SDS011;9213;50.858;3.964;2023-09-12T10:10:15;23.80;;;16.98;;
18176;SDS011;9213;50.858;3.964;2023-09-12T10:12:47;21.85;;;14.90;;
18176;SDS011;9213;50.858;3.964;2023-09-12T10:15:18;22.98;;;15.82;;
18176;SDS011;9213;50.858;3.964;2023-09-12T10:17:50;25.50;;;16.88;;
18176;SDS011;9213;50.858;3.964;2023-09-12T10:20:22;30.08;;;18.33;;
18176;SDS011;9213;50.858;3.964;2023-09-12T10:22:52;25.27;;;17.30;;
18176;SDS011;9213;50.858;3.964;2023-09-12T10:25:28;21.70;;;14.90;;
18176;SDS011;9213;50.858;3.964;2023-09-12T10:27:55;20.90;;;14.80;;
18176;SDS011;9213;50.858;3.964;2023-09-12T10:30:23;22.27;;;15.68;;
18176;SDS011;9213;50.858;3.964;2023-09-12T10:32:51;21.23;;;14.98;;
18176;SDS011;9213;50.858;3.964;2023-09-12T10:35:19;22.00;;;15.65;;
18176;SDS011;9213;50.858;3.964;2023-09-12T10:37:46;21.75;;;14.63;;
18176;SDS011;9213;50.858;3.964;2023-09-12T10:40:17;23.33;;;16.33;;
18176;SDS011;9213;50.858;3.964;2023-09-12T10:42:45;21.58;;;15.60;;
18176;SDS011;9213;50.858;3.964;2023-09-12T10:45:14;20.77;;;15.45;;
18176;SDS011;9213;50.858;3.964;2023-09-12T10:47:43;19.75;;;14.90;;
18176;SDS011;9213;50.858;3.964;2023-09-12T10:50:10;20.73;;;15.95;;
18176;SDS011;9213;50.858;3.964;2023-09-12T10:52:38;18.70;;;14.63;;
18176;SDS011;9213;50.858;3.964;2023-09-12T10:55:07;19.23;;;14.88;;
18176;SDS011;9213;50.858;3.964;2023-09-12T10:57:34;18.50;;;14.35;;
18176;SDS011;9213;50.858;3.964;2023-09-12T11:00:11;18.48;;;13.75;;
18176;SDS011;9213;50.858;3.964;2023-09-12T11:02:39;13.85;;;11.82;;
18176;SDS011;9213;50.858;3.964;2023-09-12T11:08:01;15.18;;;13.20;;
18176;SDS011;9213;50.858;3.964;2023-09-12T11:10:29;16.45;;;14.13;;
18176;SDS011;9213;50.858;3.964;2023-09-12T11:12:57;19.20;;;14.85;;
18176;SDS011;9213;50.858;3.964;2023-09-12T11:15:25;18.52;;;15.68;;
18176;SDS011;9213;50.858;3.964;2023-09-12T11:18:00;17.73;;;14.45;;
18176;SDS011;9213;50.858;3.964;2023-09-12T11:23:28;14.30;;;11.70;;
18176;SDS011;9213;50.858;3.964;2023-09-12T11:26:03;12.00;;;10.23;;
18176;SDS011;9213;50.858;3.964;2023-09-12T11:28:32;13.48;;;10.77;;
18176;SDS011;9213;50.858;3.964;2023-09-12T11:30:59;15.35;;;11.30;;
18176;SDS011;9213;50.858;3.964;2023-09-12T11:33:26;12.98;;;11.18;;
18176;SDS011;9213;50.858;3.964;2023-09-12T11:35:55;11.73;;;9.23;;
18176;SDS011;9213;50.858;3.964;2023-09-12T11:38:26;13.32;;;11.15;;
18176;SDS011;9213;50.858;3.964;2023-09-12T11:40:54;12.55;;;10.57;;
18176;SDS011;9213;50.858;3.964;2023-09-12T11:43:22;11.25;;;10.02;;
18176;SDS011;9213;50.858;3.964;2023-09-12T11:45:49;11.25;;;9.52;;
18176;SDS011;9213;50.858;3.964;2023-09-12T11:48:17;10.80;;;9.20;;
18176;SDS011;9213;50.858;3.964;2023-09-12T11:50:48;10.20;;;8.88;;
18176;SDS011;9213;50.858;3.964;2023-09-12T11:53:19;9.80;;;8.80;;
18176;SDS011;9213;50.858;3.964;2023-09-12T11:55:48;12.02;;;8.50;;
18176;SDS011;9213;50.858;3.964;2023-09-12T11:58:16;14.40;;;8.93;;
18176;SDS011;9213;50.858;3.964;2023-09-12T12:00:44;9.75;;;8.60;;
18176;SDS011;9213;50.858;3.964;2023-09-12T12:03:12;9.68;;;8.70;;
18176;SDS011;9213;50.858;3.964;2023-09-12T12:05:39;10.85;;;9.75;;
18176;SDS011;9213;50.858;3.964;2023-09-12T12:08:07;11.20;;;8.60;;
18176;SDS011;9213;50.858;3.964;2023-09-12T12:10:38;10.43;;;8.80;;
18176;SDS011;9213;50.858;3.964;2023-09-12T12:13:06;9.93;;;8.40;;
18176;SDS011;9213;50.858;3.964;2023-09-12T12:15:33;10.32;;;8.20;;
18176;SDS011;9213;50.858;3.964;2023-09-12T12:18:00;10.35;;;9.35;;
18176;SDS011;9213;50.858;3.964;2023-09-12T12:20:27;13.02;;;8.75;;
18176;SDS011;9213;50.858;3.964;2023-09-12T12:22:55;8.40;;;7.38;;
18176;SDS011;9213;50.858;3.964;2023-09-12T12:25:22;10.95;;;7.57;;
18176;SDS011;9213;50.858;3.964;2023-09-12T12:27:51;11.38;;;8.13;;
18176;SDS011;9213;50.858;3.964;2023-09-12T12:30:18;9.75;;;8.40;;
18176;SDS011;9213;50.858;3.964;2023-09-12T12:32:46;11.88;;;8.55;;
18176;SDS011;9213;50.858;3.964;2023-09-12T12:35:16;10.15;;;8.85;;
18176;SDS011;9213;50.858;3.964;2023-09-12T12:37:44;11.90;;;8.70;;
18176;SDS011;9213;50.858;3.964;2023-09-12T12:40:12;10.43;;;8.82;;
18176;SDS011;9213;50.858;3.964;2023-09-12T12:42:39;10.65;;;9.43;;
18176;SDS011;9213;50.858;3.964;2023-09-12T12:45:12;12.02;;;10.23;;
18176;SDS011;9213;50.858;3.964;2023-09-12T12:47:40;11.50;;;10.30;;
18176;SDS011;9213;50.858;3.964;2023-09-12T12:50:07;12.23;;;9.65;;
18176;SDS011;9213;50.858;3.964;2023-09-12T12:52:37;12.55;;;10.20;;
18176;SDS011;9213;50.858;3.964;2023-09-12T12:55:04;11.23;;;9.52;;
18176;SDS011;9213;50.858;3.964;2023-09-12T12:57:32;10.13;;;9.13;;
18176;SDS011;9213;50.858;3.964;2023-09-12T13:00:04;11.95;;;9.80;;
18176;SDS011;9213;50.858;3.964;2023-09-12T13:02:34;10.30;;;9.23;;
18176;SDS011;9213;50.858;3.964;2023-09-12T13:05:01;9.55;;;8.55;;
18176;SDS011;9213;50.858;3.964;2023-09-12T13:07:28;11.70;;;9.48;;
18176;SDS011;9213;50.858;3.964;2023-09-12T13:09:55;10.60;;;9.43;;
18176;SDS011;9213;50.858;3.964;2023-09-12T13:12:22;10.60;;;9.15;;
18176;SDS011;9213;50.858;3.964;2023-09-12T13:14:49;10.50;;;8.77;;
18176;SDS011;9213;50.858;3.964;2023-09-12T13:17:16;10.02;;;8.82;;
18176;SDS011;9213;50.858;3.964;2023-09-12T13:19:44;10.18;;;8.63;;
18176;SDS011;9213;50.858;3.964;2023-09-12T13:22:11;12.40;;;9.60;;
18176;SDS011;9213;50.858;3.964;2023-09-12T13:24:38;10.80;;;8.50;;
18176;SDS011;9213;50.858;3.964;2023-09-12T13:27:05;10.88;;;8.65;;
18176;SDS011;9213;50.858;3.964;2023-09-12T13:29:32;11.65;;;9.00;;
18176;SDS011;9213;50.858;3.964;2023-09-12T13:31:59;10.57;;;9.48;;
18176;SDS011;9213;50.858;3.964;2023-09-12T13:34:25;12.00;;;10.10;;
18176;SDS011;9213;50.858;3.964;2023-09-12T13:36:54;11.55;;;9.57;;
18176;SDS011;9213;50.858;3.964;2023-09-12T13:39:22;10.05;;;9.05;;
18176;SDS011;9213;50.858;3.964;2023-09-12T13:41:49;12.88;;;10.57;;
18176;SDS011;9213;50.858;3.964;2023-09-12T13:44:16;13.88;;;10.88;;
18176;SDS011;9213;50.858;3.964;2023-09-12T13:46:43;11.15;;;10.05;;
18176;SDS011;9213;50.858;3.964;2023-09-12T13:49:12;14.15;;;11.18;;
18176;SDS011;9213;50.858;3.964;2023-09-12T13:51:38;16.02;;;12.18;;
18176;SDS011;9213;50.858;3.964;2023-09-12T13:54:07;14.40;;;12.10;;
18176;SDS011;9213;50.858;3.964;2023-09-12T13:56:39;14.40;;;12.15;;
18176;SDS011;9213;50.858;3.964;2023-09-12T13:59:06;16.85;;;12.68;;
18176;SDS011;9213;50.858;3.964;2023-09-12T14:01:33;15.30;;;13.45;;
18176;SDS011;9213;50.858;3.964;2023-09-12T14:04:00;15.30;;;13.18;;
18176;SDS011;9213;50.858;3.964;2023-09-12T14:06:27;15.15;;;12.13;;
18176;SDS011;9213;50.858;3.964;2023-09-12T14:08:54;14.93;;;13.18;;
18176;SDS011;9213;50.858;3.964;2023-09-12T14:11:22;15.55;;;13.88;;
18176;SDS011;9213;50.858;3.964;2023-09-12T14:13:49;17.80;;;14.45;;
18176;SDS011;9213;50.858;3.964;2023-09-12T14:16:16;15.25;;;13.45;;
18176;SDS011;9213;50.858;3.964;2023-09-12T14:18:43;16.00;;;14.30;;
18176;SDS011;9213;50.858;3.964;2023-09-12T14:21:10;18.25;;;14.30;;
18176;SDS011;9213;50.858;3.964;2023-09-12T14:23:37;18.77;;;14.68;;
18176;SDS011;9213;50.858;3.964;2023-09-12T14:26:04;16.80;;;14.50;;
18176;SDS011;9213;50.858;3.964;2023-09-12T14:28:32;17.08;;;15.27;;
18176;SDS011;9213;50.858;3.964;2023-09-12T14:30:59;17.70;;;15.02;;
18176;SDS011;9213;50.858;3.964;2023-09-12T14:33:28;17.15;;;15.35;;
18176;SDS011;9213;50.858;3.964;2023-09-12T14:35:55;21.45;;;16.10;;
18176;SDS011;9213;50.858;3.964;2023-09-12T14:38:22;20.75;;;16.40;;
18176;SDS011;9213;50.858;3.964;2023-09-12T14:40:49;17.33;;;15.48;;
18176;SDS011;9213;50.858;3.964;2023-09-12T14:43:18;18.00;;;15.70;;
18176;SDS011;9213;50.858;3.964;2023-09-12T14:45:46;19.20;;;15.40;;
18176;SDS011;9213;50.858;3.964;2023-09-12T14:48:13;19.63;;;15.90;;